AAL433 KATL-KCLT
Flight info
| Callsign | AAL433 |
|---|---|
| Flight time | 0h 47m |
| Altitude | 27000 |
| Route | PHIIL3 PHIIL CNTLR JONZE5 |
| Aircraft | B738/M-VGDW/C |
Departure
| Time | 2026-05-05 15:44 |
|---|---|
| Airport | Hartsfield Jackson Atlanta International Airport (KATL) |
Arrival
| Time | 2026-05-05 16:32 |
|---|---|
| Airport | Charlotte Douglas International Airport (KCLT) |
| Time | Latitude | Longitude | Altitude | Speed | Heading |
|---|---|---|---|---|---|
| 2026-05-05 15:31 | 33.64402 | -84.42631 | 998 ft | 0 kts | 90° |
| 2026-05-05 15:36 | 33.64401 | -84.42638 | 999 ft | 2 kts | 66° |
| 2026-05-05 15:36 | 33.64394 | -84.42654 | 999 ft | 2 kts | 72° |
| 2026-05-05 15:36 | 33.64390 | -84.42672 | 1000 ft | 2 kts | 71° |
| 2026-05-05 15:37 | 33.64385 | -84.42689 | 1000 ft | 2 kts | 71° |
| 2026-05-05 15:37 | 33.64380 | -84.42706 | 1001 ft | 2 kts | 71° |
| 2026-05-05 15:37 | 33.64376 | -84.42722 | 1001 ft | 0 kts | 71° |
| 2026-05-05 15:37 | 33.64374 | -84.42729 | 1001 ft | 0 kts | 119° |
| 2026-05-05 15:38 | 33.64378 | -84.42735 | 1001 ft | 0 kts | 171° |
| 2026-05-05 15:38 | 33.64383 | -84.42734 | 1001 ft | 0 kts | 186° |
| 2026-05-05 15:38 | 33.64387 | -84.42734 | 1001 ft | 0 kts | 181° |
| 2026-05-05 15:40 | 33.64379 | -84.42734 | 1001 ft | 6 kts | 181° |
| 2026-05-05 15:40 | 33.64290 | -84.42733 | 1001 ft | 17 kts | 179° |
| 2026-05-05 15:40 | 33.64137 | -84.42732 | 1003 ft | 26 kts | 181° |
| 2026-05-05 15:41 | 33.63921 | -84.42737 | 1004 ft | 35 kts | 182° |
| 2026-05-05 15:41 | 33.63683 | -84.42722 | 1002 ft | 31 kts | 144° |
| 2026-05-05 15:41 | 33.63654 | -84.42491 | 997 ft | 28 kts | 91° |
| 2026-05-05 15:41 | 33.63647 | -84.42248 | 988 ft | 29 kts | 86° |
| 2026-05-05 15:42 | 33.63658 | -84.42003 | 979 ft | 30 kts | 90° |
| 2026-05-05 15:42 | 33.63655 | -84.41740 | 967 ft | 34 kts | 91° |
| 2026-05-05 15:42 | 33.63654 | -84.41436 | 963 ft | 36 kts | 89° |
| 2026-05-05 15:42 | 33.63656 | -84.41122 | 962 ft | 37 kts | 90° |
| 2026-05-05 15:43 | 33.63590 | -84.40848 | 954 ft | 34 kts | 152° |
| 2026-05-05 15:43 | 33.63471 | -84.40949 | 957 ft | 21 kts | 268° |
| 2026-05-05 15:43 | 33.63469 | -84.41135 | 962 ft | 39 kts | 269° |
| 2026-05-05 15:43 | 33.63470 | -84.41759 | 970 ft | 109 kts | 270° |
| 2026-05-05 15:44 | 33.63462 | -84.42927 | 1011 ft | 164 kts | 269° |
| 2026-05-05 15:44 | 33.63487 | -84.44403 | 1205 ft | 196 kts | 271° |
| 2026-05-05 15:44 | 33.63488 | -84.46187 | 1517 ft | 231 kts | 267° |
| 2026-05-05 15:44 | 33.63210 | -84.48161 | 2052 ft | 254 kts | 249° |
| 2026-05-05 15:45 | 33.62425 | -84.50100 | 2915 ft | 260 kts | 239° |
| 2026-05-05 15:45 | 33.61526 | -84.51977 | 3781 ft | 262 kts | 239° |
| 2026-05-05 15:45 | 33.60677 | -84.53883 | 4635 ft | 263 kts | 242° |
| 2026-05-05 15:45 | 33.59824 | -84.55798 | 5444 ft | 265 kts | 236° |
| 2026-05-05 15:46 | 33.58594 | -84.57455 | 6197 ft | 267 kts | 215° |
| 2026-05-05 15:46 | 33.56916 | -84.58373 | 6950 ft | 270 kts | 193° |
| 2026-05-05 15:46 | 33.55039 | -84.58556 | 7686 ft | 275 kts | 180° |
| 2026-05-05 15:46 | 33.53121 | -84.58464 | 8416 ft | 278 kts | 180° |
| 2026-05-05 15:47 | 33.51204 | -84.58272 | 9121 ft | 282 kts | 173° |
| 2026-05-05 15:47 | 33.49307 | -84.57538 | 9725 ft | 292 kts | 153° |
| 2026-05-05 15:47 | 33.47693 | -84.56025 | 10395 ft | 300 kts | 134° |
| 2026-05-05 15:47 | 33.46488 | -84.53929 | 10710 ft | 319 kts | 117° |
| 2026-05-05 15:48 | 33.45754 | -84.51353 | 10901 ft | 340 kts | 102° |
| 2026-05-05 15:48 | 33.45515 | -84.48449 | 11127 ft | 358 kts | 91° |
| 2026-05-05 15:48 | 33.45542 | -84.45444 | 11552 ft | 367 kts | 89° |
| 2026-05-05 15:48 | 33.45607 | -84.42372 | 11943 ft | 377 kts | 89° |
| 2026-05-05 15:49 | 33.45634 | -84.39235 | 12609 ft | 378 kts | 90° |
| 2026-05-05 15:49 | 33.45620 | -84.36065 | 13171 ft | 381 kts | 90° |
| 2026-05-05 15:49 | 33.45732 | -84.32904 | 13650 ft | 386 kts | 82° |
| 2026-05-05 15:49 | 33.46265 | -84.29742 | 14275 ft | 386 kts | 73° |
| 2026-05-05 15:50 | 33.47084 | -84.26678 | 14781 ft | 390 kts | 69° |
| 2026-05-05 15:50 | 33.47999 | -84.23618 | 15350 ft | 392 kts | 69° |
| 2026-05-05 15:50 | 33.48893 | -84.20516 | 15870 ft | 396 kts | 70° |
| 2026-05-05 15:50 | 33.49735 | -84.17371 | 16356 ft | 400 kts | 71° |
| 2026-05-05 15:51 | 33.50541 | -84.14188 | 16797 ft | 405 kts | 71° |
| 2026-05-05 15:51 | 33.51337 | -84.10960 | 17330 ft | 407 kts | 71° |
| 2026-05-05 15:51 | 33.52143 | -84.07701 | 17821 ft | 410 kts | 71° |
| 2026-05-05 15:51 | 33.52963 | -84.04425 | 18274 ft | 413 kts | 71° |
| 2026-05-05 15:52 | 33.53803 | -84.01112 | 18716 ft | 417 kts | 70° |
| 2026-05-05 15:52 | 33.54649 | -83.97800 | 19198 ft | 419 kts | 70° |
| 2026-05-05 15:52 | 33.55504 | -83.94447 | 19555 ft | 424 kts | 70° |
| 2026-05-05 15:52 | 33.56363 | -83.91071 | 20001 ft | 426 kts | 70° |
| 2026-05-05 15:53 | 33.57223 | -83.87679 | 20382 ft | 430 kts | 70° |
| 2026-05-05 15:53 | 33.58109 | -83.84224 | 20863 ft | 430 kts | 69° |
| 2026-05-05 15:53 | 33.59094 | -83.80825 | 21252 ft | 432 kts | 65° |
| 2026-05-05 15:53 | 33.60246 | -83.77539 | 21593 ft | 434 kts | 62° |
| 2026-05-05 15:54 | 33.61530 | -83.74246 | 21983 ft | 436 kts | 60° |
| 2026-05-05 15:54 | 33.62837 | -83.70983 | 22313 ft | 439 kts | 60° |
| 2026-05-05 15:54 | 33.64150 | -83.67664 | 22688 ft | 442 kts | 61° |
| 2026-05-05 15:54 | 33.65380 | -83.64223 | 23043 ft | 447 kts | 65° |
| 2026-05-05 15:55 | 33.66375 | -83.60689 | 23390 ft | 452 kts | 69° |
| 2026-05-05 15:55 | 33.67236 | -83.57083 | 23801 ft | 452 kts | 68° |
| 2026-05-05 15:55 | 33.68337 | -83.53580 | 24185 ft | 448 kts | 59° |
| 2026-05-05 15:55 | 33.69826 | -83.50309 | 24506 ft | 445 kts | 52° |
| 2026-05-05 15:56 | 33.71503 | -83.47243 | 24899 ft | 444 kts | 49° |
| 2026-05-05 15:56 | 33.73239 | -83.44178 | 25219 ft | 447 kts | 49° |
| 2026-05-05 15:56 | 33.74964 | -83.41042 | 25638 ft | 447 kts | 50° |
| 2026-05-05 15:56 | 33.76636 | -83.37879 | 25822 ft | 453 kts | 51° |
| 2026-05-05 15:57 | 33.78280 | -83.34645 | 26236 ft | 453 kts | 53° |
| 2026-05-05 15:57 | 33.79896 | -83.31354 | 26439 ft | 458 kts | 53° |
| 2026-05-05 15:57 | 33.81493 | -83.28031 | 26599 ft | 463 kts | 53° |
| 2026-05-05 15:57 | 33.83094 | -83.24686 | 26889 ft | 464 kts | 53° |
| 2026-05-05 15:58 | 33.84714 | -83.21368 | 27052 ft | 460 kts | 51° |
| 2026-05-05 15:58 | 33.86425 | -83.18112 | 27062 ft | 459 kts | 49° |
| 2026-05-05 15:58 | 33.88195 | -83.14931 | 27056 ft | 459 kts | 48° |
| 2026-05-05 15:58 | 33.89997 | -83.11759 | 27060 ft | 459 kts | 48° |
| 2026-05-05 15:59 | 33.91813 | -83.08557 | 27060 ft | 460 kts | 49° |
| 2026-05-05 15:59 | 33.93588 | -83.05405 | 27060 ft | 461 kts | 49° |
| 2026-05-05 15:59 | 33.95383 | -83.02186 | 27056 ft | 463 kts | 49° |
| 2026-05-05 15:59 | 33.97171 | -82.98950 | 27058 ft | 463 kts | 50° |
| 2026-05-05 16:00 | 33.98936 | -82.95710 | 27057 ft | 465 kts | 50° |
| 2026-05-05 16:00 | 34.00707 | -82.92400 | 27059 ft | 466 kts | 50° |
| 2026-05-05 16:00 | 34.02437 | -82.89127 | 27062 ft | 467 kts | 50° |
| 2026-05-05 16:00 | 34.04166 | -82.85850 | 27063 ft | 467 kts | 51° |
| 2026-05-05 16:01 | 34.05922 | -82.82523 | 27065 ft | 467 kts | 50° |
| 2026-05-05 16:01 | 34.07677 | -82.79205 | 27068 ft | 468 kts | 50° |
| 2026-05-05 16:01 | 34.09444 | -82.75885 | 27063 ft | 469 kts | 50° |
| 2026-05-05 16:01 | 34.11190 | -82.72612 | 27063 ft | 469 kts | 50° |
| 2026-05-05 16:02 | 34.12983 | -82.69278 | 27066 ft | 470 kts | 50° |
| 2026-05-05 16:02 | 34.14756 | -82.65972 | 27063 ft | 471 kts | 50° |
| 2026-05-05 16:02 | 34.16513 | -82.62698 | 27060 ft | 472 kts | 50° |
| 2026-05-05 16:02 | 34.18305 | -82.59366 | 27058 ft | 472 kts | 50° |
| 2026-05-05 16:03 | 34.20095 | -82.56020 | 26947 ft | 476 kts | 51° |
| 2026-05-05 16:03 | 34.21894 | -82.52648 | 26568 ft | 486 kts | 51° |
| 2026-05-05 16:03 | 34.23741 | -82.49182 | 26177 ft | 495 kts | 51° |
| 2026-05-05 16:03 | 34.25584 | -82.45713 | 25887 ft | 487 kts | 52° |
| 2026-05-05 16:04 | 34.27368 | -82.42340 | 25638 ft | 465 kts | 51° |
| 2026-05-05 16:04 | 34.29066 | -82.39128 | 25389 ft | 446 kts | 52° |
| 2026-05-05 16:04 | 34.30727 | -82.35986 | 25136 ft | 441 kts | 52° |
| 2026-05-05 16:04 | 34.32373 | -82.32904 | 24891 ft | 441 kts | 52° |
| 2026-05-05 16:05 | 34.34043 | -82.29799 | 24653 ft | 441 kts | 52° |
| 2026-05-05 16:05 | 34.35740 | -82.26665 | 24403 ft | 442 kts | 52° |
| 2026-05-05 16:05 | 34.37417 | -82.23588 | 24154 ft | 441 kts | 52° |
| 2026-05-05 16:05 | 34.39112 | -82.20476 | 23903 ft | 440 kts | 53° |
| 2026-05-05 16:06 | 34.40779 | -82.17403 | 23654 ft | 440 kts | 53° |
| 2026-05-05 16:06 | 34.42426 | -82.14322 | 23408 ft | 439 kts | 54° |
| 2026-05-05 16:06 | 34.44080 | -82.11181 | 23155 ft | 437 kts | 54° |
| 2026-05-05 16:06 | 34.45694 | -82.08079 | 22910 ft | 436 kts | 54° |
| 2026-05-05 16:07 | 34.47301 | -82.04984 | 22657 ft | 433 kts | 55° |
| 2026-05-05 16:07 | 34.48896 | -82.01913 | 22407 ft | 431 kts | 54° |
| 2026-05-05 16:07 | 34.50475 | -81.98878 | 22159 ft | 430 kts | 54° |
| 2026-05-05 16:07 | 34.52056 | -81.95853 | 21895 ft | 418 kts | 54° |
| 2026-05-05 16:08 | 34.53590 | -81.92928 | 21622 ft | 400 kts | 54° |
| 2026-05-05 16:08 | 34.55048 | -81.90143 | 21364 ft | 385 kts | 54° |
| 2026-05-05 16:08 | 34.56478 | -81.87416 | 21128 ft | 389 kts | 54° |
| 2026-05-05 16:08 | 34.57937 | -81.84644 | 20866 ft | 391 kts | 54° |
| 2026-05-05 16:09 | 34.59406 | -81.81858 | 20607 ft | 390 kts | 54° |
| 2026-05-05 16:09 | 34.60855 | -81.79123 | 20337 ft | 386 kts | 54° |
| 2026-05-05 16:09 | 34.62308 | -81.76390 | 20064 ft | 384 kts | 54° |
| 2026-05-05 16:09 | 34.63755 | -81.73668 | 19807 ft | 382 kts | 55° |
| 2026-05-05 16:10 | 34.65182 | -81.70976 | 19550 ft | 382 kts | 55° |
| 2026-05-05 16:10 | 34.66616 | -81.68258 | 19294 ft | 380 kts | 55° |
| 2026-05-05 16:10 | 34.68016 | -81.65576 | 19044 ft | 380 kts | 55° |
| 2026-05-05 16:10 | 34.69420 | -81.62860 | 18796 ft | 378 kts | 56° |
| 2026-05-05 16:11 | 34.70817 | -81.60137 | 18538 ft | 377 kts | 56° |
| 2026-05-05 16:11 | 34.75003 | -81.52171 | 17767 ft | 366 kts | 51° |
| 2026-05-05 16:12 | 34.76575 | -81.49789 | 17511 ft | 357 kts | 46° |
| 2026-05-05 16:12 | 34.79947 | -81.45544 | 17016 ft | 341 kts | 43° |
| 2026-05-05 16:13 | 34.84840 | -81.39368 | 16294 ft | 339 kts | 45° |
| 2026-05-05 16:13 | 34.86445 | -81.37293 | 16060 ft | 338 kts | 45° |
| 2026-05-05 16:13 | 34.88053 | -81.35220 | 15808 ft | 335 kts | 45° |
| 2026-05-05 16:14 | 34.91252 | -81.31118 | 15004 ft | 332 kts | 45° |
| 2026-05-05 16:14 | 34.94418 | -81.27047 | 14132 ft | 329 kts | 46° |
| 2026-05-05 16:15 | 34.97536 | -81.23013 | 13271 ft | 328 kts | 46° |
| 2026-05-05 16:15 | 35.00666 | -81.18985 | 12404 ft | 326 kts | 46° |
| 2026-05-05 16:16 | 35.03782 | -81.14982 | 11560 ft | 325 kts | 47° |
| 2026-05-05 16:16 | 35.06854 | -81.10999 | 10868 ft | 318 kts | 47° |
| 2026-05-05 16:17 | 35.09969 | -81.07182 | 10153 ft | 313 kts | 37° |
| 2026-05-05 16:17 | 35.11835 | -81.06010 | 10058 ft | 298 kts | 11° |
| 2026-05-05 16:18 | 35.15730 | -81.06199 | 9857 ft | 270 kts | 347° |
| 2026-05-05 16:18 | 35.17606 | -81.06504 | 9569 ft | 268 kts | 351° |
| 2026-05-05 16:18 | 35.21271 | -81.06826 | 9059 ft | 262 kts | 353° |
| 2026-05-05 16:19 | 35.23096 | -81.06966 | 8753 ft | 262 kts | 353° |
| 2026-05-05 16:19 | 35.24902 | -81.07123 | 8443 ft | 261 kts | 353° |
| 2026-05-05 16:19 | 35.28513 | -81.07475 | 7837 ft | 258 kts | 353° |
| 2026-05-05 16:20 | 35.32076 | -81.07805 | 7281 ft | 254 kts | 353° |
| 2026-05-05 16:20 | 35.35580 | -81.08111 | 6689 ft | 252 kts | 353° |
| 2026-05-05 16:21 | 35.39111 | -81.08467 | 6052 ft | 252 kts | 352° |
| 2026-05-05 16:22 | 35.44268 | -81.09007 | 5236 ft | 247 kts | 353° |
| 2026-05-05 16:22 | 35.47651 | -81.09359 | 4827 ft | 237 kts | 352° |
| 2026-05-05 16:23 | 35.50928 | -81.09708 | 4327 ft | 233 kts | 352° |
| 2026-05-05 16:23 | 35.52531 | -81.09880 | 4063 ft | 232 kts | 352° |
| 2026-05-05 16:23 | 35.55600 | -81.08888 | 3383 ft | 239 kts | 48° |
| 2026-05-05 16:24 | 35.56416 | -81.07181 | 3156 ft | 229 kts | 82° |
| 2026-05-05 16:24 | 35.56410 | -81.05299 | 2971 ft | 217 kts | 109° |
| 2026-05-05 16:24 | 35.55024 | -81.02284 | 2944 ft | 201 kts | 140° |
| 2026-05-05 16:25 | 35.53945 | -81.01221 | 2943 ft | 199 kts | 150° |
| 2026-05-05 16:25 | 35.51619 | -80.99398 | 2947 ft | 197 kts | 157° |
| 2026-05-05 16:25 | 35.50373 | -80.98773 | 2955 ft | 194 kts | 166° |
| 2026-05-05 16:26 | 35.47732 | -80.98225 | 2961 ft | 191 kts | 175° |
| 2026-05-05 16:26 | 35.45089 | -80.97811 | 2945 ft | 191 kts | 176° |
| 2026-05-05 16:27 | 35.43805 | -80.97617 | 2956 ft | 180 kts | 175° |
| 2026-05-05 16:27 | 35.42564 | -80.97324 | 2951 ft | 181 kts | 171° |
| 2026-05-05 16:27 | 35.41325 | -80.97041 | 2950 ft | 179 kts | 173° |
| 2026-05-05 16:27 | 35.40091 | -80.96812 | 2955 ft | 180 kts | 178° |
| 2026-05-05 16:28 | 35.38848 | -80.96698 | 2955 ft | 181 kts | 179° |
| 2026-05-05 16:28 | 35.37594 | -80.96584 | 2957 ft | 181 kts | 178° |
| 2026-05-05 16:28 | 35.36329 | -80.96475 | 2956 ft | 178 kts | 179° |
| 2026-05-05 16:28 | 35.35082 | -80.96373 | 2960 ft | 181 kts | 178° |
| 2026-05-05 16:29 | 35.33849 | -80.96259 | 2909 ft | 176 kts | 179° |
| 2026-05-05 16:29 | 35.32624 | -80.96162 | 2657 ft | 176 kts | 179° |
| 2026-05-05 16:29 | 35.31419 | -80.96053 | 2415 ft | 172 kts | 179° |
| 2026-05-05 16:29 | 35.30229 | -80.95953 | 2192 ft | 167 kts | 178° |
| 2026-05-05 16:30 | 35.29093 | -80.95855 | 1983 ft | 161 kts | 180° |
| 2026-05-05 16:30 | 35.28016 | -80.95764 | 1766 ft | 148 kts | 180° |
| 2026-05-05 16:30 | 35.27040 | -80.95678 | 1577 ft | 140 kts | 180° |
| 2026-05-05 16:30 | 35.26061 | -80.95599 | 1424 ft | 140 kts | 180° |
| 2026-05-05 16:31 | 35.25103 | -80.95518 | 1221 ft | 140 kts | 180° |
| 2026-05-05 16:31 | 35.24121 | -80.95430 | 1086 ft | 141 kts | 178° |
| 2026-05-05 16:31 | 35.23112 | -80.95337 | 909 ft | 145 kts | 178° |
| 2026-05-05 16:31 | 35.22133 | -80.95252 | 734 ft | 132 kts | 178° |
| 2026-05-05 16:32 | 35.21346 | -80.95207 | 714 ft | 88 kts | 174° |
| 2026-05-05 16:32 | 35.20913 | -80.95156 | 706 ft | 41 kts | 176° |
| 2026-05-05 16:32 | 35.20705 | -80.95100 | 702 ft | 26 kts | 158° |
| 2026-05-05 16:32 | 35.20590 | -80.94974 | 695 ft | 21 kts | 79° |
| 2026-05-05 16:33 | 35.20705 | -80.94938 | 697 ft | 15 kts | 354° |
| 2026-05-05 16:33 | 35.20801 | -80.94946 | 699 ft | 14 kts | 356° |
| 2026-05-05 16:33 | 35.20932 | -80.94959 | 702 ft | 26 kts | 354° |
| 2026-05-05 16:33 | 35.21159 | -80.94977 | 706 ft | 37 kts | 358° |
| 2026-05-05 16:34 | 35.21421 | -80.95001 | 712 ft | 35 kts | 355° |
| 2026-05-05 16:34 | 35.21648 | -80.95021 | 717 ft | 31 kts | 355° |
| 2026-05-05 16:34 | 35.21843 | -80.95022 | 723 ft | 22 kts | 37° |
| 2026-05-05 16:34 | 35.21878 | -80.94853 | 724 ft | 20 kts | 86° |
| 2026-05-05 16:35 | 35.21916 | -80.94725 | 724 ft | 11 kts | 21° |
| 2026-05-05 16:35 | 35.21975 | -80.94697 | 726 ft | 4 kts | 27° |
| 2026-05-05 16:35 | 35.21982 | -80.94693 | 726 ft | 0 kts | 23° |